Time;durP1;ratioP1;P1;durP2;ratioP2;P2;SDS_P1;SDS_P2;PMS_P1;PMS_P2;Temp;Humidity;BMP_temperature;BMP_pressure;BME280_temperature;BME280_humidity;BME280_pressure;Samples;Min_cycle;Max_cycle;Signal;HPM_P1;HPM_P2
2022/02/25 00:03:07;;;;;;;;;;;17.20;36.40;;;;;;8331060;28;20425;-54
2022/02/25 00:07:08;;;;;;;;;;;17.20;36.40;;;;;;8330974;28;19924;-49
2022/02/25 00:11:08;;;;;;;;;;;17.10;36.40;;;;;;8330720;28;19924;-51
2022/02/25 00:15:09;;;;;;;;;;;17.10;36.40;;;;;;8330666;28;19921;-51
2022/02/25 00:19:09;;;;;;;;;;;17.10;36.40;;;;;;8330618;28;19947;-52
2022/02/25 00:23:10;;;;;;;;;;;17.10;36.40;;;;;;8330107;28;19917;-50
2022/02/25 00:27:10;;;;;;;;;;;17.10;36.40;;;;;;8330847;28;19967;-48
2022/02/25 00:31:11;;;;;;;;;;;17.10;36.40;;;;;;8330457;28;19949;-53
2022/02/25 00:35:11;;;;;;;;;;;17.10;36.40;;;;;;8329685;28;19917;-53
2022/02/25 00:39:11;;;;;;;;;;;17.10;36.40;;;;;;8330162;28;20389;-51
2022/02/25 00:43:12;;;;;;;;;;;17.10;36.50;;;;;;8330305;28;20003;-49
2022/02/25 00:47:13;;;;;;;;;;;17.10;36.50;;;;;;8329641;28;19924;-51
2022/02/25 00:51:13;;;;;;;;;;;17.10;36.50;;;;;;8329967;28;19924;-48
2022/02/25 00:55:14;;;;;;;;;;;17.10;36.50;;;;;;8329834;28;20229;-49
2022/02/25 00:59:14;;;;;;;;;;;17.10;36.50;;;;;;8329504;28;19917;-48
2022/02/25 01:03:14;;;;;;;;;;;17.10;36.50;;;;;;8329771;28;19970;-49
2022/02/25 01:07:15;;;;;;;;;;;17.10;36.50;;;;;;8330056;28;20001;-48
2022/02/25 01:11:15;;;;;;;;;;;17.00;36.40;;;;;;8329334;28;20004;-48
2022/02/25 01:15:16;;;;;;;;;;;17.00;36.50;;;;;;8329864;28;19971;-53
2022/02/25 01:19:17;;;;;;;;;;;17.00;36.50;;;;;;8329597;28;19914;-53
2022/02/25 01:23:17;;;;;;;;;;;17.00;36.50;;;;;;8329396;28;20230;-49
2022/02/25 01:27:18;;;;;;;;;;;17.00;36.50;;;;;;8329867;28;19959;-53
2022/02/25 01:31:19;;;;;;;;;;;17.00;36.50;;;;;;8329562;28;20437;-51
2022/02/25 01:35:20;;;;;;;;;;;17.00;36.50;;;;;;8329039;28;19917;-50
2022/02/25 01:39:21;;;;;;;;;;;17.00;36.40;;;;;;8329486;28;20393;-52
2022/02/25 01:43:22;;;;;;;;;;;17.00;36.50;;;;;;8329022;28;19923;-49
2022/02/25 01:47:22;;;;;;;;;;;17.00;36.50;;;;;;8329343;28;20332;-48
2022/02/25 01:51:23;;;;;;;;;;;17.00;36.50;;;;;;8329396;28;19948;-48
2022/02/25 01:55:24;;;;;;;;;;;17.00;36.50;;;;;;8328903;28;19921;-48
2022/02/25 01:59:25;;;;;;;;;;;17.00;36.50;;;;;;8331851;28;19917;-51
2022/02/25 02:03:25;;;;;;;;;;;16.90;36.50;;;;;;8335053;28;19921;-51
2022/02/25 02:07:26;;;;;;;;;;;16.90;36.40;;;;;;8334498;28;20500;-51
2022/02/25 02:11:27;;;;;;;;;;;16.90;36.50;;;;;;8306174;28;20397;-52
2022/02/25 02:15:27;;;;;;;;;;;17.00;36.50;;;;;;8323130;28;19917;-51
2022/02/25 02:19:29;;;;;;;;;;;16.90;36.40;;;;;;8334029;28;19924;-49
2022/02/25 02:23:29;;;;;;;;;;;16.90;36.40;;;;;;8334339;28;19924;-47
2022/02/25 02:31:49;;;;;;;;;;;16.90;36.40;;;;;;8333696;28;20384;-50
2022/02/25 02:35:50;;;;;;;;;;;16.90;36.40;;;;;;8334173;28;19917;-50
2022/02/25 02:39:50;;;;;;;;;;;16.90;36.50;;;;;;8333884;28;19917;-52
2022/02/25 02:43:51;;;;;;;;;;;16.90;36.50;;;;;;8333170;28;19917;-49
2022/02/25 02:47:51;;;;;;;;;;;16.90;36.50;;;;;;8333814;28;19964;-49
2022/02/25 02:51:52;;;;;;;;;;;16.90;36.40;;;;;;8333398;28;19918;-51
2022/02/25 02:55:52;;;;;;;;;;;16.90;36.40;;;;;;8332730;28;19921;-50
2022/02/25 02:59:53;;;;;;;;;;;16.90;36.50;;;;;;8333336;28;19933;-52
2022/02/25 03:03:53;;;;;;;;;;;16.80;36.40;;;;;;8333123;28;19925;-51
2022/02/25 03:07:54;;;;;;;;;;;16.80;36.40;;;;;;8332804;28;19932;-49
2022/02/25 03:11:54;;;;;;;;;;;16.90;36.40;;;;;;8331902;28;20391;-48
2022/02/25 03:15:55;;;;;;;;;;;16.80;36.30;;;;;;8332867;28;20321;-48
2022/02/25 03:19:55;;;;;;;;;;;16.80;36.40;;;;;;8328458;28;19928;-49
2022/02/25 03:23:56;;;;;;;;;;;16.80;36.40;;;;;;8332383;28;19917;-53
2022/02/25 03:27:56;;;;;;;;;;;16.80;36.40;;;;;;8332730;28;20390;-53
2022/02/25 03:31:57;;;;;;;;;;;16.80;36.40;;;;;;8331905;28;20008;-51
2022/02/25 03:35:57;;;;;;;;;;;16.80;36.40;;;;;;8332504;28;19924;-53
2022/02/25 03:39:58;;;;;;;;;;;16.80;36.40;;;;;;8331816;28;20387;-55
2022/02/25 03:43:58;;;;;;;;;;;16.80;36.30;;;;;;8331322;28;20422;-49
2022/02/25 03:47:59;;;;;;;;;;;16.80;36.30;;;;;;8331753;28;20028;-49
2022/02/25 03:51:59;;;;;;;;;;;16.80;36.30;;;;;;8331546;28;19917;-49
2022/02/25 03:56:00;;;;;;;;;;;16.80;36.40;;;;;;8330989;28;19925;-50
2022/02/25 04:00:00;;;;;;;;;;;16.80;36.30;;;;;;8331579;28;19963;-48
2022/02/25 04:04:01;;;;;;;;;;;16.80;36.30;;;;;;8331576;28;19997;-48
2022/02/25 04:08:01;;;;;;;;;;;16.80;36.30;;;;;;8330903;28;19922;-47
2022/02/25 04:12:02;;;;;;;;;;;16.80;36.30;;;;;;8330881;28;19917;-48
2022/02/25 04:16:03;;;;;;;;;;;16.80;36.30;;;;;;8331003;28;20428;-51
2022/02/25 04:20:04;;;;;;;;;;;16.80;36.40;;;;;;8330397;28;20054;-48
2022/02/25 04:24:04;;;;;;;;;;;16.80;36.40;;;;;;8330421;28;20427;-49
2022/02/25 04:28:05;;;;;;;;;;;16.70;36.40;;;;;;8343883;28;19928;-49
2022/02/25 04:32:06;;;;;;;;;;;16.70;36.40;;;;;;8335706;28;19995;-49
2022/02/25 04:36:06;;;;;;;;;;;16.70;36.40;;;;;;8330657;28;20400;-48
2022/02/25 04:40:08;;;;;;;;;;;16.70;36.30;;;;;;8330459;28;19924;-50
2022/02/25 04:44:08;;;;;;;;;;;16.70;36.40;;;;;;8329896;28;19913;-48
2022/02/25 04:48:10;;;;;;;;;;;16.80;36.40;;;;;;8329620;28;20374;-49
2022/02/25 04:52:12;;;;;;;;;;;16.80;36.30;;;;;;8330283;28;20087;-49
2022/02/25 04:56:13;;;;;;;;;;;16.80;36.40;;;;;;8329561;28;20367;-49
2022/02/25 05:00:14;;;;;;;;;;;16.70;36.30;;;;;;8329826;28;20346;-49
2022/02/25 05:04:15;;;;;;;;;;;16.80;36.30;;;;;;8330010;28;19913;-49
2022/02/25 05:08:15;;;;;;;;;;;16.80;36.30;;;;;;8328809;28;19928;-48
2022/02/25 05:12:16;;;;;;;;;;;16.80;36.20;;;;;;8329963;28;19925;-49
2022/02/25 05:20:36;;;;;;;;;;;16.70;36.20;;;;;;8329379;28;19927;-48
2022/02/25 05:24:36;;;;;;;;;;;16.80;36.20;;;;;;8329918;28;20267;-48
2022/02/25 05:28:39;;;;;;;;;;;16.80;36.30;;;;;;8329322;28;20024;-48
2022/02/25 05:32:39;;;;;;;;;;;16.70;36.20;;;;;;8330045;28;19921;-53
2022/02/25 05:36:40;;;;;;;;;;;16.80;36.20;;;;;;8335778;28;19972;-49
2022/02/25 05:40:40;;;;;;;;;;;16.70;36.20;;;;;;8335239;28;19936;-50
2022/02/25 05:44:41;;;;;;;;;;;16.70;36.20;;;;;;8335517;28;19963;-51
2022/02/25 05:48:41;;;;;;;;;;;16.70;36.20;;;;;;8335999;28;19928;-49
2022/02/25 05:52:43;;;;;;;;;;;16.70;36.20;;;;;;8334951;28;19921;-50
2022/02/25 05:56:43;;;;;;;;;;;16.70;36.20;;;;;;8335154;28;19921;-49
2022/02/25 06:00:44;;;;;;;;;;;16.70;36.20;;;;;;8334915;28;19917;-50
2022/02/25 06:04:44;;;;;;;;;;;16.70;36.20;;;;;;8334464;28;19925;-48
2022/02/25 06:08:45;;;;;;;;;;;16.70;36.20;;;;;;8335053;28;20324;-48
2022/02/25 06:12:47;;;;;;;;;;;16.70;36.20;;;;;;8333969;28;21351;-48
2022/02/25 06:16:47;;;;;;;;;;;16.70;36.10;;;;;;8333681;28;19917;-49
2022/02/25 06:20:48;;;;;;;;;;;16.70;36.10;;;;;;8334202;28;20385;-48
2022/02/25 06:24:48;;;;;;;;;;;16.70;36.20;;;;;;8334346;28;19917;-49
2022/02/25 06:28:49;;;;;;;;;;;16.70;36.10;;;;;;8333768;28;19952;-49
2022/02/25 06:32:50;;;;;;;;;;;16.70;36.10;;;;;;8334402;28;20285;-52
2022/02/25 06:36:50;;;;;;;;;;;16.70;36.10;;;;;;8333757;28;19962;-50
2022/02/25 06:40:51;;;;;;;;;;;16.70;36.10;;;;;;8333059;28;20012;-52
2022/02/25 06:44:51;;;;;;;;;;;16.70;36.10;;;;;;8333546;28;19914;-50
2022/02/25 06:48:52;;;;;;;;;;;16.70;36.10;;;;;;8333391;28;19932;-48
2022/02/25 06:52:53;;;;;;;;;;;16.70;36.10;;;;;;8333043;28;19979;-48
2022/02/25 06:56:53;;;;;;;;;;;16.60;36.00;;;;;;8333194;28;19924;-49
2022/02/25 07:00:54;;;;;;;;;;;16.60;36.00;;;;;;8332999;28;20282;-50
2022/02/25 07:04:54;;;;;;;;;;;16.60;36.00;;;;;;8332010;28;19921;-49
2022/02/25 07:08:55;;;;;;;;;;;16.70;36.00;;;;;;8332920;28;20304;-48
2022/02/25 07:12:55;;;;;;;;;;;16.60;36.00;;;;;;8332739;28;20116;-49
2022/02/25 07:16:55;;;;;;;;;;;16.60;36.00;;;;;;8331975;28;19921;-49
2022/02/25 07:20:56;;;;;;;;;;;16.60;36.00;;;;;;8332619;28;19928;-53
2022/02/25 07:24:56;;;;;;;;;;;16.60;36.00;;;;;;8332482;28;19914;-51
2022/02/25 07:28:57;;;;;;;;;;;16.70;36.00;;;;;;8331467;28;19925;-51
2022/02/25 07:32:57;;;;;;;;;;;16.70;36.00;;;;;;8332127;28;20414;-49
2022/02/25 07:36:58;;;;;;;;;;;16.60;35.90;;;;;;8331973;28;19917;-50
2022/02/25 07:40:58;;;;;;;;;;;16.60;36.00;;;;;;8331432;28;19917;-52
2022/02/25 07:44:59;;;;;;;;;;;16.60;35.90;;;;;;8331916;28;20358;-50
2022/02/25 07:48:59;;;;;;;;;;;16.60;35.90;;;;;;8330275;28;19925;-48
2022/02/25 07:53:00;;;;;;;;;;;16.60;36.00;;;;;;8331156;28;20348;-48
2022/02/25 07:57:00;;;;;;;;;;;16.60;36.00;;;;;;8329461;28;19917;-49
2022/02/25 08:01:01;;;;;;;;;;;16.60;35.90;;;;;;8331293;28;20040;-50
2022/02/25 08:05:01;;;;;;;;;;;16.60;35.90;;;;;;8330858;28;19917;-51
2022/02/25 08:09:02;;;;;;;;;;;16.60;36.00;;;;;;8331273;28;19925;-50
2022/02/25 08:13:04;;;;;;;;;;;16.60;36.00;;;;;;8326257;28;19987;-50
2022/02/25 08:17:05;;;;;;;;;;;16.60;36.00;;;;;;8330415;28;19963;-52
2022/02/25 08:21:05;;;;;;;;;;;16.60;35.90;;;;;;8330960;28;19917;-51
2022/02/25 08:25:06;;;;;;;;;;;16.60;35.90;;;;;;8330870;28;19921;-51
2022/02/25 08:29:07;;;;;;;;;;;16.60;35.90;;;;;;8329951;28;19979;-49
2022/02/25 08:33:07;;;;;;;;;;;16.60;36.00;;;;;;8330559;28;20358;-48
2022/02/25 08:37:08;;;;;;;;;;;16.60;36.00;;;;;;8330242;28;19920;-53
2022/02/25 08:41:08;;;;;;;;;;;16.70;36.00;;;;;;8329459;28;19917;-51
2022/02/25 08:45:10;;;;;;;;;;;16.60;35.90;;;;;;8330084;28;19921;-50
2022/02/25 08:49:11;;;;;;;;;;;16.70;36.00;;;;;;8329933;28;20349;-53
2022/02/25 08:53:11;;;;;;;;;;;16.70;36.00;;;;;;8329430;28;19921;-51
2022/02/25 08:57:12;;;;;;;;;;;16.70;36.00;;;;;;8329777;28;19960;-50
2022/02/25 09:01:12;;;;;;;;;;;16.70;36.00;;;;;;8329781;28;19917;-49
2022/02/25 09:05:13;;;;;;;;;;;16.70;36.00;;;;;;8329300;28;19914;-50
2022/02/25 09:09:14;;;;;;;;;;;16.70;35.90;;;;;;8333892;28;19925;-49
2022/02/25 09:13:14;;;;;;;;;;;16.70;35.90;;;;;;8336235;28;19913;-52
2022/02/25 09:17:15;;;;;;;;;;;16.70;35.80;;;;;;8335635;28;20313;-48
2022/02/25 09:21:17;;;;;;;;;;;16.80;35.90;;;;;;8335999;28;20282;-51
2022/02/25 09:25:18;;;;;;;;;;;16.70;35.80;;;;;;8336049;28;19917;-48
2022/02/25 09:29:18;;;;;;;;;;;16.80;35.90;;;;;;8335198;28;19925;-53
2022/02/25 09:33:19;;;;;;;;;;;16.80;35.90;;;;;;8336006;28;19979;-52
2022/02/25 09:37:19;;;;;;;;;;;16.80;35.80;;;;;;8335505;28;19928;-50
2022/02/25 09:41:20;;;;;;;;;;;16.80;35.80;;;;;;8334903;28;19917;-49
2022/02/25 09:45:20;;;;;;;;;;;16.80;35.80;;;;;;8335680;28;19915;-51
2022/02/25 09:49:21;;;;;;;;;;;16.80;35.70;;;;;;8334840;28;20271;-52
2022/02/25 09:53:22;;;;;;;;;;;16.80;35.70;;;;;;8335549;28;20301;-49
2022/02/25 09:57:22;;;;;;;;;;;16.90;35.80;;;;;;8335282;28;19913;-51
2022/02/25 10:01:29;;;;;;;;;;;16.80;35.70;;;;;;8334429;28;19917;-49
2022/02/25 10:05:31;;;;;;;;;;;16.90;35.70;;;;;;8334994;28;20366;-50
2022/02/25 10:09:36;;;;;;;;;;;16.90;35.70;;;;;;8334640;28;20247;-52
2022/02/25 10:13:37;;;;;;;;;;;16.90;35.70;;;;;;8334208;28;20336;-48
2022/02/25 10:17:37;;;;;;;;;;;16.90;35.60;;;;;;8334367;28;19921;-53
2022/02/25 10:21:38;;;;;;;;;;;16.90;35.60;;;;;;8333868;28;19929;-51
2022/02/25 10:25:38;;;;;;;;;;;16.90;35.60;;;;;;8333945;28;19917;-49
2022/02/25 10:29:54;;;;;;;;;;;16.90;35.60;;;;;;8334035;28;19979;-53
2022/02/25 10:33:59;;;;;;;;;;;16.90;35.60;;;;;;8334059;28;19921;-48
2022/02/25 10:38:05;;;;;;;;;;;16.90;35.60;;;;;;8333501;28;20006;-48
2022/02/25 10:42:06;;;;;;;;;;;16.90;35.60;;;;;;8333967;28;19913;-51
2022/02/25 10:46:10;;;;;;;;;;;16.90;35.50;;;;;;8333836;28;19932;-49
2022/02/25 10:50:12;;;;;;;;;;;17.00;35.50;;;;;;8333051;28;20374;-48
2022/02/25 10:54:12;;;;;;;;;;;17.00;35.40;;;;;;8333409;28;20396;-50
2022/02/25 10:58:14;;;;;;;;;;;17.00;35.40;;;;;;8333100;28;20155;-47
2022/02/25 11:02:22;;;;;;;;;;;17.00;35.40;;;;;;8332423;28;19924;-48
2022/02/25 11:06:24;;;;;;;;;;;17.00;35.30;;;;;;8333410;28;19913;-52
2022/02/25 11:10:26;;;;;;;;;;;17.00;35.30;;;;;;8326524;28;20056;-51
2022/02/25 11:14:27;;;;;;;;;;;17.00;35.20;;;;;;8324353;28;19922;-52
2022/02/25 11:18:28;;;;;;;;;;;17.00;35.20;;;;;;8332779;28;19914;-49
2022/02/25 11:22:29;;;;;;;;;;;17.00;35.10;;;;;;8331853;28;19963;-51
2022/02/25 11:26:30;;;;;;;;;;;17.00;35.10;;;;;;8332583;28;19920;-50
2022/02/25 11:30:32;;;;;;;;;;;17.00;35.10;;;;;;8331489;28;19925;-54
2022/02/25 11:34:33;;;;;;;;;;;17.00;35.10;;;;;;8331407;28;19913;-48
2022/02/25 11:38:33;;;;;;;;;;;17.00;35.10;;;;;;8331928;28;19940;-49
2022/02/25 11:42:34;;;;;;;;;;;17.00;35.10;;;;;;8332131;28;20297;-51
2022/02/25 11:46:36;;;;;;;;;;;17.00;35.10;;;;;;8331590;28;20423;-51
2022/02/25 11:50:38;;;;;;;;;;;17.00;35.10;;;;;;8331651;28;19929;-52
2022/02/25 11:54:46;;;;;;;;;;;17.00;35.10;;;;;;8331295;28;19948;-54
2022/02/25 11:58:47;;;;;;;;;;;17.00;35.10;;;;;;8332636;28;19941;-53
2022/02/25 12:03:07;;;;;;;;;;;17.00;35.00;;;;;;8331232;28;19917;-49
2022/02/25 12:07:10;;;;;;;;;;;17.00;35.10;;;;;;8331144;28;19925;-51
2022/02/25 12:11:31;;;;;;;;;;;17.00;35.00;;;;;;8330668;28;19925;-52
2022/02/25 12:15:36;;;;;;;;;;;17.00;35.10;;;;;;8331098;28;20362;-49
2022/02/25 12:19:36;;;;;;;;;;;17.00;35.00;;;;;;8330337;28;19917;-50
2022/02/25 12:23:51;;;;;;;;;;;17.00;35.00;;;;;;8330667;28;20374;-52
2022/02/25 12:27:51;;;;;;;;;;;17.00;35.00;;;;;;8330831;28;19914;-48
2022/02/25 12:31:53;;;;;;;;;;;17.00;35.00;;;;;;8330242;28;20442;-50
2022/02/25 12:35:56;;;;;;;;;;;17.00;35.00;;;;;;8330671;28;19917;-49
2022/02/25 12:40:08;;;;;;;;;;;17.00;34.90;;;;;;8330420;28;19928;-49
2022/02/25 12:44:16;;;;;;;;;;;17.00;34.90;;;;;;8330186;28;20377;-50
2022/02/25 12:48:16;;;;;;;;;;;17.00;34.90;;;;;;8330453;28;19969;-48
2022/02/25 12:52:17;;;;;;;;;;;17.00;34.90;;;;;;8330041;28;19921;-47
2022/02/25 12:56:18;;;;;;;;;;;17.10;34.90;;;;;;8329714;28;19917;-48
2022/02/25 13:00:18;;;;;;;;;;;17.00;34.90;;;;;;8330216;28;20389;-49
2022/02/25 13:04:26;;;;;;;;;;;17.10;34.90;;;;;;8329875;28;19920;-52
2022/02/25 13:08:30;;;;;;;;;;;17.10;34.80;;;;;;8329725;28;19929;-49
2022/02/25 13:12:31;;;;;;;;;;;17.10;34.80;;;;;;8329982;28;19941;-47
2022/02/25 13:16:31;;;;;;;;;;;17.10;34.90;;;;;;8329369;28;20504;-50
2022/02/25 13:20:32;;;;;;;;;;;17.10;34.90;;;;;;8329604;28;19917;-52
2022/02/25 13:24:33;;;;;;;;;;;17.10;34.90;;;;;;8329542;28;20012;-51
2022/02/25 13:28:34;;;;;;;;;;;17.10;34.80;;;;;;8328832;28;20336;-51
2022/02/25 13:32:34;;;;;;;;;;;17.10;34.80;;;;;;8329496;28;19913;-53
2022/02/25 13:36:35;;;;;;;;;;;17.10;34.70;;;;;;8329575;28;19920;-49
2022/02/25 13:40:39;;;;;;;;;;;17.10;34.80;;;;;;8328942;28;20108;-48
2022/02/25 13:44:40;;;;;;;;;;;17.10;34.80;;;;;;8329284;28;19963;-50
2022/02/25 13:53:01;;;;;;;;;;;17.10;34.70;;;;;;8328793;28;19964;-49
2022/02/25 13:57:02;;;;;;;;;;;17.10;34.70;;;;;;8334294;28;19914;-48
2022/02/25 14:01:03;;;;;;;;;;;17.10;34.70;;;;;;8335139;28;19917;-50
2022/02/25 14:05:08;;;;;;;;;;;17.10;34.70;;;;;;8327993;28;20448;-50
2022/02/25 14:09:21;;;;;;;;;;;17.10;34.70;;;;;;8334719;28;19943;-49
2022/02/25 14:13:30;;;;;;;;;;;17.10;34.60;;;;;;8334516;28;19928;-49
2022/02/25 14:17:31;;;;;;;;;;;17.10;34.60;;;;;;8334688;28;19914;-50
2022/02/25 14:21:32;;;;;;;;;;;17.10;34.60;;;;;;8334265;28;20285;-52
2022/02/25 14:25:32;;;;;;;;;;;17.10;34.60;;;;;;8333785;28;20305;-48
2022/02/25 14:29:33;;;;;;;;;;;17.10;34.60;;;;;;8333955;28;19925;-50
2022/02/25 14:33:40;;;;;;;;;;;17.10;34.60;;;;;;8334012;28;20249;-49
2022/02/25 14:37:41;;;;;;;;;;;17.10;34.60;;;;;;8333885;28;19920;-53
2022/02/25 14:41:42;;;;;;;;;;;17.10;34.50;;;;;;8333737;28;19953;-51
2022/02/25 14:45:43;;;;;;;;;;;17.10;34.50;;;;;;8333418;28;19917;-50
2022/02/25 14:49:43;;;;;;;;;;;17.10;34.60;;;;;;8332870;28;19926;-48
2022/02/25 14:53:45;;;;;;;;;;;17.10;34.50;;;;;;8333504;28;20412;-51
2022/02/25 14:57:46;;;;;;;;;;;17.10;34.50;;;;;;8333580;28;19917;-53
2022/02/25 15:01:46;;;;;;;;;;;17.10;34.50;;;;;;8332545;28;19917;-52
2022/02/25 15:05:46;;;;;;;;;;;17.10;34.50;;;;;;8332574;28;20059;-54
2022/02/25 15:09:48;;;;;;;;;;;17.10;34.50;;;;;;8331538;28;20382;-52
2022/02/25 15:13:49;;;;;;;;;;;17.10;34.60;;;;;;8330542;28;20301;-50
2022/02/25 15:17:50;;;;;;;;;;;17.10;34.50;;;;;;8332841;28;19937;-51
2022/02/25 15:21:50;;;;;;;;;;;17.10;34.50;;;;;;8332654;28;20377;-51
2022/02/25 15:25:52;;;;;;;;;;;17.10;34.60;;;;;;8332029;28;19917;-49
2022/02/25 15:29:52;;;;;;;;;;;17.10;34.60;;;;;;8332162;28;19925;-54
2022/02/25 15:33:53;;;;;;;;;;;17.10;34.50;;;;;;8331997;28;19939;-53
2022/02/25 15:37:55;;;;;;;;;;;17.10;34.50;;;;;;8331950;28;19920;-52
2022/02/25 15:41:56;;;;;;;;;;;17.10;34.50;;;;;;8331877;28;20012;-54
2022/02/25 15:45:56;;;;;;;;;;;17.10;34.50;;;;;;8331571;28;20032;-52
2022/02/25 15:49:56;;;;;;;;;;;17.10;34.50;;;;;;8330475;28;20346;-54
2022/02/25 15:53:57;;;;;;;;;;;17.10;34.50;;;;;;8330868;28;20416;-53
2022/02/25 15:57:57;;;;;;;;;;;17.10;34.50;;;;;;8331571;28;19920;-49
2022/02/25 16:01:58;;;;;;;;;;;17.10;34.50;;;;;;8330745;28;19917;-49
2022/02/25 16:05:58;;;;;;;;;;;17.10;34.40;;;;;;8331108;28;19939;-50
2022/02/25 16:09:59;;;;;;;;;;;17.10;34.40;;;;;;8331028;28;19948;-52
2022/02/25 16:14:00;;;;;;;;;;;17.10;34.50;;;;;;8330572;28;20005;-53
2022/02/25 16:18:04;;;;;;;;;;;17.10;34.50;;;;;;8330959;28;19914;-48
2022/02/25 16:22:04;;;;;;;;;;;17.10;34.40;;;;;;8330812;28;19927;-52
2022/02/25 16:26:05;;;;;;;;;;;17.10;34.50;;;;;;8330206;28;19923;-50
2022/02/25 16:30:06;;;;;;;;;;;17.10;34.40;;;;;;8330353;28;19932;-53
2022/02/25 16:34:06;;;;;;;;;;;17.10;34.40;;;;;;8330216;28;19917;-50
2022/02/25 16:38:07;;;;;;;;;;;17.10;34.40;;;;;;8329961;28;20348;-49
2022/02/25 16:42:09;;;;;;;;;;;17.10;34.40;;;;;;8329134;28;20003;-52
2022/02/25 16:46:10;;;;;;;;;;;17.10;34.50;;;;;;8330227;28;20003;-52
2022/02/25 16:50:10;;;;;;;;;;;17.00;34.40;;;;;;8329677;28;20403;-53
2022/02/25 16:54:11;;;;;;;;;;;17.00;34.40;;;;;;8330029;28;19928;-52
2022/02/25 16:58:12;;;;;;;;;;;17.10;34.50;;;;;;8330295;28;19913;-49
2022/02/25 17:02:18;;;;;;;;;;;17.00;34.40;;;;;;8329434;28;19917;-51
2022/02/25 17:06:19;;;;;;;;;;;17.00;34.40;;;;;;8330129;28;20377;-48
2022/02/25 17:10:19;;;;;;;;;;;17.10;34.50;;;;;;8329264;28;19932;-50
2022/02/25 17:14:20;;;;;;;;;;;17.00;34.50;;;;;;8330344;28;19921;-49
2022/02/25 17:18:22;;;;;;;;;;;17.00;34.40;;;;;;8330572;28;19913;-52
2022/02/25 17:22:23;;;;;;;;;;;17.00;34.40;;;;;;8329449;28;19917;-54
2022/02/25 17:26:23;;;;;;;;;;;17.00;34.40;;;;;;8329782;28;19921;-50
2022/02/25 17:30:23;;;;;;;;;;;17.00;34.40;;;;;;8332221;28;19924;-52
2022/02/25 17:34:24;;;;;;;;;;;17.00;34.40;;;;;;8335590;28;19924;-49
2022/02/25 17:38:25;;;;;;;;;;;17.00;34.40;;;;;;8336086;28;19999;-48
2022/02/25 17:42:25;;;;;;;;;;;17.00;34.40;;;;;;8335927;28;19917;-48
2022/02/25 17:46:25;;;;;;;;;;;17.00;34.40;;;;;;8335200;28;20000;-49
2022/02/25 17:50:26;;;;;;;;;;;16.90;34.50;;;;;;8335326;28;20329;-49
2022/02/25 17:54:27;;;;;;;;;;;17.00;34.60;;;;;;8335395;28;19925;-48
2022/02/25 17:58:27;;;;;;;;;;;17.00;34.60;;;;;;8335228;28;20297;-52
2022/02/25 18:02:32;;;;;;;;;;;16.90;34.50;;;;;;8334858;28;19917;-48
2022/02/25 18:06:33;;;;;;;;;;;16.90;34.50;;;;;;8334978;28;19971;-48
2022/02/25 18:10:33;;;;;;;;;;;16.90;34.60;;;;;;8334228;28;19921;-50
2022/02/25 18:14:34;;;;;;;;;;;16.90;34.60;;;;;;8334855;28;19913;-50
2022/02/25 18:18:35;;;;;;;;;;;16.90;34.70;;;;;;8334843;28;19924;-49
2022/02/25 18:22:35;;;;;;;;;;;16.90;34.70;;;;;;8334187;28;19917;-50
2022/02/25 18:26:38;;;;;;;;;;;16.90;34.70;;;;;;8334593;28;19925;-48
2022/02/25 18:30:38;;;;;;;;;;;16.90;34.70;;;;;;8334139;28;19921;-50
2022/02/25 18:34:39;;;;;;;;;;;16.90;34.70;;;;;;8333669;28;19939;-49
2022/02/25 18:38:39;;;;;;;;;;;16.90;34.80;;;;;;8334193;28;20374;-49
2022/02/25 18:42:40;;;;;;;;;;;16.90;34.80;;;;;;8333582;28;19963;-48
2022/02/25 18:46:40;;;;;;;;;;;16.90;34.80;;;;;;8333448;28;19925;-53
2022/02/25 18:50:41;;;;;;;;;;;16.90;34.80;;;;;;8333881;28;19928;-51
2022/02/25 18:54:42;;;;;;;;;;;16.90;34.80;;;;;;8333430;28;19921;-53
2022/02/25 18:58:42;;;;;;;;;;;16.90;34.90;;;;;;8333247;28;19982;-48
2022/02/25 19:02:43;;;;;;;;;;;16.90;34.90;;;;;;8333288;28;20418;-48
2022/02/25 19:06:44;;;;;;;;;;;16.90;34.90;;;;;;8333271;28;19913;-49
2022/02/25 19:10:44;;;;;;;;;;;16.90;34.90;;;;;;8332505;28;19932;-52
2022/02/25 19:14:45;;;;;;;;;;;16.90;34.90;;;;;;8333101;28;19914;-51
2022/02/25 19:18:45;;;;;;;;;;;16.90;34.90;;;;;;8333023;28;19917;-51
2022/02/25 19:22:48;;;;;;;;;;;16.90;35.00;;;;;;8332369;28;19943;-48
2022/02/25 19:26:48;;;;;;;;;;;16.90;35.00;;;;;;8332649;28;19917;-52
2022/02/25 19:30:49;;;;;;;;;;;16.90;35.00;;;;;;8332310;28;19968;-48
2022/02/25 19:34:49;;;;;;;;;;;16.90;35.00;;;;;;8331970;28;19921;-49
2022/02/25 19:38:50;;;;;;;;;;;16.90;35.00;;;;;;8332128;28;19939;-52
2022/02/25 19:42:50;;;;;;;;;;;16.80;35.00;;;;;;8332269;28;20263;-53
2022/02/25 19:46:52;;;;;;;;;;;16.90;35.00;;;;;;8331283;28;19922;-53
2022/02/25 19:50:52;;;;;;;;;;;16.80;35.00;;;;;;8331648;28;19922;-51
2022/02/25 19:54:54;;;;;;;;;;;16.80;35.00;;;;;;8331013;28;19991;-55
2022/02/25 19:58:55;;;;;;;;;;;16.80;35.10;;;;;;8331072;28;19929;-51
2022/02/25 20:02:55;;;;;;;;;;;16.80;35.10;;;;;;8331377;28;20020;-50
2022/02/25 20:06:56;;;;;;;;;;;16.80;35.10;;;;;;8323072;28;19917;-50
2022/02/25 20:10:56;;;;;;;;;;;16.80;35.20;;;;;;8305186;28;20173;-53
2022/02/25 20:14:57;;;;;;;;;;;16.80;35.10;;;;;;8331117;28;19917;-49
2022/02/25 20:18:57;;;;;;;;;;;16.80;35.10;;;;;;8330956;28;19917;-49
2022/02/25 20:22:58;;;;;;;;;;;16.80;35.10;;;;;;8335126;28;19917;-51
2022/02/25 20:26:59;;;;;;;;;;;16.80;35.10;;;;;;8347516;28;19917;-49
2022/02/25 20:31:00;;;;;;;;;;;16.80;35.10;;;;;;8330668;28;20361;-50
2022/02/25 20:35:01;;;;;;;;;;;16.80;35.10;;;;;;8359717;28;19917;-52
2022/02/25 20:39:03;;;;;;;;;;;16.80;35.10;;;;;;8332296;28;19917;-50
2022/02/25 20:43:06;;;;;;;;;;;16.80;35.10;;;;;;8335247;28;19917;-48
2022/02/25 20:47:06;;;;;;;;;;;16.70;35.10;;;;;;8329774;28;19924;-50
2022/02/25 20:51:07;;;;;;;;;;;16.70;35.10;;;;;;8350198;28;20318;-54
2022/02/25 20:55:08;;;;;;;;;;;16.70;35.10;;;;;;8330210;28;19929;-52
2022/02/25 20:59:08;;;;;;;;;;;16.70;35.10;;;;;;8329692;28;20425;-49
2022/02/25 21:03:10;;;;;;;;;;;16.70;35.10;;;;;;8330565;28;19956;-49
2022/02/25 21:07:10;;;;;;;;;;;16.70;35.10;;;;;;8336953;28;20440;-50
2022/02/25 21:11:15;;;;;;;;;;;16.70;35.10;;;;;;8336088;28;20040;-51
2022/02/25 21:15:17;;;;;;;;;;;16.70;35.10;;;;;;8335563;28;19989;-48
2022/02/25 21:19:17;;;;;;;;;;;16.70;35.10;;;;;;8336544;28;19921;-47
2022/02/25 21:23:18;;;;;;;;;;;16.70;35.10;;;;;;8335923;28;19943;-50
2022/02/25 21:27:18;;;;;;;;;;;16.70;35.10;;;;;;8336247;28;20223;-51
2022/02/25 21:31:19;;;;;;;;;;;16.70;35.10;;;;;;8335942;28;19925;-49
2022/02/25 21:35:23;;;;;;;;;;;16.70;35.10;;;;;;8335825;28;19920;-47
2022/02/25 21:39:23;;;;;;;;;;;16.70;35.10;;;;;;8335929;28;19917;-52
2022/02/25 21:43:24;;;;;;;;;;;16.70;35.10;;;;;;8335325;28;19913;-51
2022/02/25 21:47:24;;;;;;;;;;;16.70;35.10;;;;;;8335632;28;19923;-52
2022/02/25 21:51:25;;;;;;;;;;;16.70;35.20;;;;;;8335340;28;19921;-51
2022/02/25 21:55:25;;;;;;;;;;;16.70;35.20;;;;;;8335419;28;19929;-50
2022/02/25 21:59:26;;;;;;;;;;;16.70;35.10;;;;;;8335353;28;19917;-52
2022/02/25 22:03:26;;;;;;;;;;;16.60;35.10;;;;;;8335263;28;19917;-53
2022/02/25 22:07:27;;;;;;;;;;;16.60;35.10;;;;;;8334649;28;19917;-53
2022/02/25 22:11:29;;;;;;;;;;;16.60;35.10;;;;;;8335113;28;19925;-49
2022/02/25 22:15:30;;;;;;;;;;;16.60;35.10;;;;;;8334327;28;19940;-48
2022/02/25 22:19:31;;;;;;;;;;;16.60;35.10;;;;;;8334246;28;19917;-49
2022/02/25 22:23:31;;;;;;;;;;;16.60;35.20;;;;;;8334495;28;19917;-48
2022/02/25 22:27:33;;;;;;;;;;;16.60;35.20;;;;;;8334586;28;19913;-48
2022/02/25 22:31:33;;;;;;;;;;;16.60;35.10;;;;;;8333983;28;19972;-50
2022/02/25 22:35:34;;;;;;;;;;;16.60;35.20;;;;;;8334291;28;19920;-48
2022/02/25 22:39:34;;;;;;;;;;;16.60;35.10;;;;;;8333937;28;19918;-52
2022/02/25 22:43:35;;;;;;;;;;;16.60;35.20;;;;;;8333522;28;19913;-52
2022/02/25 22:47:35;;;;;;;;;;;16.60;35.20;;;;;;8333888;28;19952;-51
2022/02/25 23:00:23;;;;;;;;;;;16.60;35.20;;;;;;8307042;28;20313;-52
2022/02/25 23:04:23;;;;;;;;;;;16.50;35.20;;;;;;8326229;28;20254;-49
2022/02/25 23:08:24;;;;;;;;;;;16.50;35.20;;;;;;8333115;28;19936;-48
2022/02/25 23:12:26;;;;;;;;;;;16.50;35.20;;;;;;8319943;28;19949;-51
2022/02/25 23:16:26;;;;;;;;;;;16.50;35.20;;;;;;8332670;28;20231;-49
2022/02/25 23:20:27;;;;;;;;;;;16.50;35.20;;;;;;8333089;28;19914;-50
2022/02/25 23:24:28;;;;;;;;;;;16.50;35.30;;;;;;8332704;28;19921;-49
2022/02/25 23:28:28;;;;;;;;;;;16.50;35.20;;;;;;8332130;28;19925;-49
2022/02/25 23:32:29;;;;;;;;;;;16.50;35.20;;;;;;8332406;28;20373;-50
2022/02/25 23:36:29;;;;;;;;;;;16.60;35.30;;;;;;8332237;28;19956;-51
2022/02/25 23:40:30;;;;;;;;;;;16.60;35.30;;;;;;8331923;28;19917;-48
2022/02/25 23:44:31;;;;;;;;;;;16.60;35.30;;;;;;8332192;28;20004;-49